Time;durP1;ratioP1;P1;durP2;ratioP2;P2;SDS_P1;SDS_P2;PMS_P1;PMS_P2;Temp;Humidity;BMP_temperature;BMP_pressure;BME280_temperature;BME280_humidity;BME280_pressure;Samples;Min_cycle;Max_cycle;Signal;HPM_P1;HPM_P2
2023/11/20 00:02:12;;;;;;;3.03;1.07;;;;;;;;;;6221983;23;20406;-84
2023/11/20 00:04:58;;;;;;;3.57;1.10;;;;;;;;;;6222921;23;20393;-87
2023/11/20 00:07:38;;;;;;;3.50;1.30;;;;;;;;;;6204227;23;20430;-88
2023/11/20 00:10:14;;;;;;;2.90;1.07;;;;;;;;;;6228406;23;20409;-86
2023/11/20 00:12:46;;;;;;;4.20;1.30;;;;;;;;;;6204505;23;20424;-86
2023/11/20 00:15:21;;;;;;;5.50;0.90;;;;;;;;;;6207018;23;20390;-85
2023/11/20 00:18:12;;;;;;;3.47;1.53;;;;;;;;;;6230167;23;20417;-85
2023/11/20 00:20:54;;;;;;;2.27;0.87;;;;;;;;;;6227485;23;20493;-88
2023/11/20 00:23:42;;;;;;;4.97;1.30;;;;;;;;;;6228383;23;20410;-88
2023/11/20 00:26:14;;;;;;;5.73;1.23;;;;;;;;;;6201188;23;20429;-85
2023/11/20 00:29:00;;;;;;;1.97;1.33;;;;;;;;;;6206525;23;20461;-87
2023/11/20 00:31:29;;;;;;;5.30;1.27;;;;;;;;;;6227519;23;20490;-86
2023/11/20 00:37:18;;;;;;;4.67;1.10;;;;;;;;;;6203569;23;20496;-88
2023/11/20 00:39:55;;;;;;;7.33;1.53;;;;;;;;;;6222092;23;20505;-87
2023/11/20 00:42:32;;;;;;;9.40;2.00;;;;;;;;;;6217271;23;20882;-86
2023/11/20 00:45:13;;;;;;;3.50;1.17;;;;;;;;;;6225202;23;20414;-85
2023/11/20 00:47:57;;;;;;;3.37;1.47;;;;;;;;;;6226169;23;20441;-85
2023/11/20 00:50:45;;;;;;;4.30;1.60;;;;;;;;;;6222534;23;20425;-85
2023/11/20 00:53:26;;;;;;;3.03;1.33;;;;;;;;;;6193026;23;20437;-84
2023/11/20 00:56:17;;;;;;;9.47;2.13;;;;;;;;;;6163811;23;20488;-84
2023/11/20 01:01:25;;;;;;;2.30;1.47;;;;;;;;;;6159962;23;20411;-83
2023/11/20 01:04:15;;;;;;;3.53;1.10;;;;;;;;;;6156619;23;20413;-85
2023/11/20 01:07:11;;;;;;;5.10;1.10;;;;;;;;;;6159101;23;20431;-84
2023/11/20 01:09:57;;;;;;;3.50;1.20;;;;;;;;;;6128128;23;20442;-84
2023/11/20 01:12:46;;;;;;;3.20;1.90;;;;;;;;;;6155717;23;20481;-83
2023/11/20 01:18:57;;;;;;;4.63;1.63;;;;;;;;;;6159942;23;20462;-86
2023/11/20 01:21:59;;;;;;;3.17;1.27;;;;;;;;;;6152852;23;20502;-86
2023/11/20 01:24:54;;;;;;;2.53;1.37;;;;;;;;;;6171317;23;20458;-85
2023/11/20 01:27:58;;;;;;;3.17;1.00;;;;;;;;;;6158584;23;20454;-85
2023/11/20 01:30:52;;;;;;;3.50;1.10;;;;;;;;;;6138636;23;20506;-83
2023/11/20 01:33:52;;;;;;;4.20;1.00;;;;;;;;;;6157390;23;20476;-83
2023/11/20 01:36:37;;;;;;;3.60;1.20;;;;;;;;;;6179613;23;21276;-87
2023/11/20 01:39:48;;;;;;;2.33;1.00;;;;;;;;;;6155751;23;20466;-83
2023/11/20 01:42:35;;;;;;;4.10;1.40;;;;;;;;;;6178863;23;20407;-85
2023/11/20 01:45:48;;;;;;;4.10;1.40;;;;;;;;;;6077373;23;20475;-86
2023/11/20 01:48:46;;;;;;;5.67;1.30;;;;;;;;;;6085030;23;20444;-84
2023/11/20 01:51:26;;;;;;;2.53;0.90;;;;;;;;;;6077863;23;20462;-84
2023/11/20 01:54:15;;;;;;;2.30;1.20;;;;;;;;;;6067785;23;20405;-84
2023/11/20 01:57:18;;;;;;;5.27;1.53;;;;;;;;;;6110303;23;20496;-87
2023/11/20 01:59:59;;;;;;;3.00;1.30;;;;;;;;;;6070483;23;20439;-85
2023/11/20 02:03:19;;;;;;;1.43;0.90;;;;;;;;;;6091417;23;20384;-86
2023/11/20 02:06:11;;;;;;;3.60;0.90;;;;;;;;;;6115259;23;20416;-84
2023/11/20 02:09:00;;;;;;;2.00;1.27;;;;;;;;;;6110775;23;20447;-86
2023/11/20 02:11:58;;;;;;;2.57;1.03;;;;;;;;;;6110332;23;20407;-85
2023/11/20 02:14:33;;;;;;;5.63;1.20;;;;;;;;;;6126994;23;20535;-84
2023/11/20 02:17:16;;;;;;;2.30;1.50;;;;;;;;;;6172395;23;20430;-83
2023/11/20 02:20:10;;;;;;;2.67;0.90;;;;;;;;;;6185683;23;20682;-85
2023/11/20 02:22:55;;;;;;;3.63;1.00;;;;;;;;;;6164110;23;20402;-87
2023/11/20 02:25:32;;;;;;;5.80;1.10;;;;;;;;;;6190923;23;20424;-84
2023/11/20 02:28:26;;;;;;;;;;;;;;;;;;;;;
2023/11/20 02:31:22;;;;;;;4.23;1.20;;;;;;;;;;6183624;23;20406;-87
2023/11/20 02:34:03;;;;;;;2.87;1.00;;;;;;;;;;6188970;23;20923;-85
2023/11/20 02:36:48;;;;;;;2.10;0.70;;;;;;;;;;6191855;23;20927;-85
2023/11/20 02:39:34;;;;;;;2.30;1.00;;;;;;;;;;6156360;23;20406;-86
2023/11/20 02:45:24;;;;;;;2.10;1.33;;;;;;;;;;6151357;23;21015;-85
2023/11/20 02:47:59;;;;;;;3.00;1.17;;;;;;;;;;6179876;23;20432;-86
2023/11/20 02:50:53;;;;;;;3.70;1.90;;;;;;;;;;6175062;23;20749;-83
2023/11/20 02:53:40;;;;;;;1.37;0.97;;;;;;;;;;6168317;23;20386;-85
2023/11/20 02:56:42;;;;;;;3.97;1.00;;;;;;;;;;6163127;23;20402;-85
2023/11/20 02:59:15;;;;;;;5.80;2.20;;;;;;;;;;6173395;23;20425;-83
2023/11/20 03:05:23;;;;;;;;;;;;;;;;;;;;;
2023/11/20 03:07:51;;;;;;;3.90;1.10;;;;;;;;;;6111428;23;20507;-87
2023/11/20 03:10:23;;;;;;;3.00;1.10;;;;;;;;;;6114048;23;20462;-85
2023/11/20 03:13:03;;;;;;;3.97;0.90;;;;;;;;;;6107650;23;20443;-84
2023/11/20 03:15:49;;;;;;;3.37;1.00;;;;;;;;;;6095954;23;20451;-87
2023/11/20 03:18:33;;;;;;;3.20;1.00;;;;;;;;;;6117725;23;20530;-86
2023/11/20 03:21:13;;;;;;;5.10;1.03;;;;;;;;;;6099564;23;20435;-86
2023/11/20 03:26:56;;;;;;;2.63;1.10;;;;;;;;;;6075663;23;20469;-85
2023/11/20 03:29:49;;;;;;;1.83;0.80;;;;;;;;;;6109912;23;20423;-87
2023/11/20 03:32:23;;;;;;;0.70;0.70;;;;;;;;;;6132700;23;20965;-87
2023/11/20 03:35:08;;;;;;;3.67;1.27;;;;;;;;;;6179744;23;20413;-84
2023/11/20 03:40:39;;;;;;;2.30;0.87;;;;;;;;;;6187056;23;20500;-88
2023/11/20 03:43:32;;;;;;;1.00;0.80;;;;;;;;;;6162306;23;20412;-85
2023/11/20 03:46:32;;;;;;;1.07;0.70;;;;;;;;;;6179728;23;20461;-85
2023/11/20 03:49:20;;;;;;;2.40;0.70;;;;;;;;;;6177801;23;20441;-85
2023/11/20 03:52:12;;;;;;;1.23;0.50;;;;;;;;;;6175822;23;20572;-84
2023/11/20 03:54:43;;;;;;;2.57;0.80;;;;;;;;;;6175993;23;20379;-85
2023/11/20 03:57:35;;;;;;;1.60;0.87;;;;;;;;;;6175468;23;20429;-86
2023/11/20 04:00:18;;;;;;;1.83;0.80;;;;;;;;;;6175110;23;20422;-87
2023/11/20 04:02:54;;;;;;;1.27;0.53;;;;;;;;;;6176356;23;20421;-85
2023/11/20 04:05:30;;;;;;;1.20;0.63;;;;;;;;;;6173918;23;20516;-86
2023/11/20 04:08:05;;;;;;;4.30;1.00;;;;;;;;;;6176207;23;20910;-83
2023/11/20 04:10:42;;;;;;;4.57;1.30;;;;;;;;;;6183925;23;20457;-86
2023/11/20 04:13:26;;;;;;;2.03;0.90;;;;;;;;;;6189675;23;20457;-85
2023/11/20 04:16:10;;;;;;;2.97;1.10;;;;;;;;;;6190923;23;20422;-86
2023/11/20 04:18:49;;;;;;;2.07;0.77;;;;;;;;;;6193506;23;20505;-86
2023/11/20 04:21:21;;;;;;;1.63;0.60;;;;;;;;;;6194867;23;20493;-85
2023/11/20 04:24:01;;;;;;;2.40;0.70;;;;;;;;;;6186264;23;20410;-85
2023/11/20 04:26:38;;;;;;;1.90;0.63;;;;;;;;;;6174456;23;20420;-86
2023/11/20 04:29:29;;;;;;;1.57;0.60;;;;;;;;;;6176412;23;20447;-85
2023/11/20 04:32:18;;;;;;;0.50;0.50;;;;;;;;;;6177758;23;20413;-85
2023/11/20 04:34:53;;;;;;;0.73;0.50;;;;;;;;;;6175397;23;20395;-85
2023/11/20 04:37:32;;;;;;;3.80;0.73;;;;;;;;;;6175039;23;20465;-85
2023/11/20 04:40:16;;;;;;;1.23;0.60;;;;;;;;;;6177001;23;20409;-86
2023/11/20 04:42:52;;;;;;;0.77;0.53;;;;;;;;;;6174922;23;20454;-86
2023/11/20 04:45:28;;;;;;;4.73;0.90;;;;;;;;;;6172980;23;21307;-87
2023/11/20 04:48:10;;;;;;;2.60;0.80;;;;;;;;;;6177062;23;20498;-85
2023/11/20 04:51:35;;;;;;;;;;;;;;;;;;;;;
2023/11/20 04:54:31;;;;;;;3.83;1.30;;;;;;;;;;6166383;23;20456;-84
2023/11/20 04:57:15;;;;;;;2.27;0.80;;;;;;;;;;6172204;23;20426;-85
2023/11/20 05:00:04;;;;;;;1.50;1.00;;;;;;;;;;6177383;23;20701;-85
2023/11/20 05:02:47;;;;;;;;;;;;;;;;;;;;;
2023/11/20 05:05:57;;;;;;;2.33;0.83;;;;;;;;;;6191156;23;20418;-85
2023/11/20 05:08:50;;;;;;;2.50;0.80;;;;;;;;;;6187421;23;20418;-87
2023/11/20 05:11:29;;;;;;;2.70;0.90;;;;;;;;;;6189161;23;20414;-85
2023/11/20 05:14:10;;;;;;;4.10;0.90;;;;;;;;;;6191090;23;20462;-84
2023/11/20 05:16:58;;;;;;;5.20;0.90;;;;;;;;;;6189726;23;20692;-85
2023/11/20 05:19:42;;;;;;;1.60;1.07;;;;;;;;;;6186280;23;20437;-85
2023/11/20 05:22:26;;;;;;;1.70;1.00;;;;;;;;;;6182910;23;20406;-86
2023/11/20 05:25:18;;;;;;;2.43;0.93;;;;;;;;;;6191474;23;20438;-85
2023/11/20 05:28:02;;;;;;;2.83;0.90;;;;;;;;;;6192276;23;20452;-84
2023/11/20 05:30:31;;;;;;;2.10;0.93;;;;;;;;;;6191220;23;20469;-83
2023/11/20 05:33:14;;;;;;;3.30;1.10;;;;;;;;;;6185089;23;20457;-87
2023/11/20 05:35:53;;;;;;;2.93;1.40;;;;;;;;;;6188874;23;20405;-85
2023/11/20 05:38:30;;;;;;;6.67;1.20;;;;;;;;;;6189359;23;20448;-83
2023/11/20 05:41:01;;;;;;;2.30;1.03;;;;;;;;;;6188852;23;20401;-86
2023/11/20 05:43:32;;;;;;;3.10;1.30;;;;;;;;;;6185597;23;20417;-86
2023/11/20 05:46:21;;;;;;;4.43;1.43;;;;;;;;;;6174252;23;20501;-87
2023/11/20 05:48:55;;;;;;;4.83;1.30;;;;;;;;;;6178503;23;20437;-85
2023/11/20 05:51:27;;;;;;;3.40;1.43;;;;;;;;;;6180374;23;20410;-86
2023/11/20 05:53:55;;;;;;;4.63;2.07;;;;;;;;;;6178734;23;20445;-87
2023/11/20 05:56:31;;;;;;;4.30;1.37;;;;;;;;;;6179615;23;20539;-86
2023/11/20 05:59:19;;;;;;;3.80;1.40;;;;;;;;;;6180827;23;20409;-86
2023/11/20 06:01:51;;;;;;;8.97;1.80;;;;;;;;;;6183243;23;20433;-87
2023/11/20 06:04:25;;;;;;;6.67;2.27;;;;;;;;;;6181666;23;20398;-85
2023/11/20 06:10:05;;;;;;;3.00;1.40;;;;;;;;;;6187885;23;20535;-84
2023/11/20 06:12:40;;;;;;;4.80;1.93;;;;;;;;;;6186691;23;20417;-85
2023/11/20 06:15:26;;;;;;;5.47;1.67;;;;;;;;;;6190109;23;20502;-85
2023/11/20 06:17:59;;;;;;;3.87;1.53;;;;;;;;;;6191778;23;20430;-86
2023/11/20 06:20:31;;;;;;;6.00;2.00;;;;;;;;;;6195381;23;21076;-87
2023/11/20 06:23:16;;;;;;;4.30;1.80;;;;;;;;;;6182355;23;20516;-87
2023/11/20 06:25:54;;;;;;;3.33;1.50;;;;;;;;;;6202774;23;20605;-87
2023/11/20 06:28:48;;;;;;;12.07;2.80;;;;;;;;;;6199351;23;20445;-86
2023/11/20 06:31:24;;;;;;;5.90;1.70;;;;;;;;;;6204294;23;20441;-86
2023/11/20 06:34:18;;;;;;;8.53;2.20;;;;;;;;;;6199825;23;20466;-85
2023/11/20 06:37:20;;;;;;;8.00;1.60;;;;;;;;;;6201396;23;20468;-85
2023/11/20 06:40:06;;;;;;;5.77;1.50;;;;;;;;;;6219349;23;20394;-85
2023/11/20 06:43:17;;;;;;;5.70;2.20;;;;;;;;;;6199097;23;20422;-86
2023/11/20 06:45:59;;;;;;;7.20;1.53;;;;;;;;;;6196582;23;20506;-85
2023/11/20 06:48:39;;;;;;;5.77;2.90;;;;;;;;;;6202135;23;20446;-85
2023/11/20 06:51:09;;;;;;;8.90;2.37;;;;;;;;;;6203263;23;20442;-88
2023/11/20 06:54:19;;;;;;;5.60;2.10;;;;;;;;;;6079463;23;20421;-86
2023/11/20 06:57:12;;;;;;;8.70;2.40;;;;;;;;;;6073500;23;20422;-85
2023/11/20 07:00:17;;;;;;;6.90;2.03;;;;;;;;;;6071122;23;20409;-86
2023/11/20 07:02:52;;;;;;;6.83;2.33;;;;;;;;;;6079012;23;20469;-86
2023/11/20 07:05:37;;;;;;;4.90;2.97;;;;;;;;;;6082514;23;20414;-85
2023/11/20 07:08:42;;;;;;;6.10;2.40;;;;;;;;;;6080693;23;20441;-87
2023/11/20 07:11:27;;;;;;;10.00;2.07;;;;;;;;;;6046047;23;20528;-84
2023/11/20 07:14:12;;;;;;;9.93;2.13;;;;;;;;;;6070226;23;20417;-86
2023/11/20 07:16:50;;;;;;;4.07;1.30;;;;;;;;;;6069594;23;20417;-85
2023/11/20 07:19:42;;;;;;;7.53;2.00;;;;;;;;;;6062813;23;20572;-87
2023/11/20 07:22:26;;;;;;;5.07;1.80;;;;;;;;;;6065682;23;20588;-87
2023/11/20 07:25:13;;;;;;;4.33;1.57;;;;;;;;;;6065131;23;20402;-87
2023/11/20 07:28:17;;;;;;;5.70;1.77;;;;;;;;;;6063380;23;20446;-85
2023/11/20 07:31:04;;;;;;;4.53;1.80;;;;;;;;;;6114078;23;20442;-85
2023/11/20 07:33:49;;;;;;;5.43;2.10;;;;;;;;;;6186849;23;20998;-86
2023/11/20 07:36:29;;;;;;;4.93;2.13;;;;;;;;;;6180871;23;20456;-85
2023/11/20 07:39:07;;;;;;;6.00;1.63;;;;;;;;;;6193434;23;20442;-87
2023/11/20 07:41:44;;;;;;;9.70;1.90;;;;;;;;;;6187161;23;20413;-87
2023/11/20 07:44:38;;;;;;;8.80;1.90;;;;;;;;;;6184743;23;20413;-87
2023/11/20 07:47:41;;;;;;;9.03;2.40;;;;;;;;;;6130915;23;20422;-86
2023/11/20 07:50:20;;;;;;;4.33;2.07;;;;;;;;;;6183244;23;20454;-86
2023/11/20 07:53:15;;;;;;;4.90;1.40;;;;;;;;;;6184008;23;20953;-84
2023/11/20 07:56:11;;;;;;;;;;;;;;;;;;;;;
2023/11/20 07:58:46;;;;;;;7.80;1.80;;;;;;;;;;6186973;23;20504;-86
2023/11/20 08:01:30;;;;;;;3.13;1.63;;;;;;;;;;6190403;23;20456;-86
2023/11/20 08:04:31;;;;;;;5.10;1.40;;;;;;;;;;6184781;23;20426;-85
2023/11/20 08:07:08;;;;;;;4.70;1.40;;;;;;;;;;6182402;23;20433;-87
2023/11/20 08:09:52;;;;;;;8.43;1.40;;;;;;;;;;6181936;23;20454;-85
2023/11/20 08:13:04;;;;;;;2.90;1.80;;;;;;;;;;6182821;23;20405;-85
2023/11/20 08:18:57;;;;;;;4.20;1.30;;;;;;;;;;6181405;23;20472;-86
2023/11/20 08:22:04;;;;;;;4.00;1.33;;;;;;;;;;6075238;23;20415;-85
2023/11/20 08:24:59;;;;;;;6.10;1.93;;;;;;;;;;6096786;23;20898;-85
2023/11/20 08:27:32;;;;;;;6.27;1.93;;;;;;;;;;6095250;23;20515;-86
2023/11/20 08:30:06;;;;;;;8.30;4.10;;;;;;;;;;6090283;23;20609;-85
2023/11/20 08:32:51;;;;;;;7.20;1.90;;;;;;;;;;6088010;23;20479;-86
2023/11/20 08:35:34;;;;;;;5.43;1.47;;;;;;;;;;6089479;23;20420;-86
2023/11/20 08:38:11;;;;;;;7.47;1.57;;;;;;;;;;6082037;23;20452;-88
2023/11/20 08:41:01;;;;;;;7.60;1.37;;;;;;;;;;6083383;23;20456;-86
2023/11/20 08:43:46;;;;;;;3.47;1.40;;;;;;;;;;6089562;23;20535;-86
2023/11/20 08:46:27;;;;;;;4.30;1.27;;;;;;;;;;6090380;23;20504;-84
2023/11/20 08:49:11;;;;;;;7.73;1.63;;;;;;;;;;6085419;23;21189;-85
2023/11/20 08:51:56;;;;;;;;;;;;;;;;;;;;;
2023/11/20 08:54:48;;;;;;;6.43;1.43;;;;;;;;;;6093379;23;20985;-86
2023/11/20 08:57:40;;;;;;;6.20;2.10;;;;;;;;;;6100200;23;20507;-85
2023/11/20 09:00:14;;;;;;;2.80;1.47;;;;;;;;;;6218750;23;20410;-86
2023/11/20 09:03:06;;;;;;;5.63;1.77;;;;;;;;;;6187480;23;20402;-86
2023/11/20 09:05:43;;;;;;;3.27;1.60;;;;;;;;;;6180355;23;20417;-86
2023/11/20 09:11:40;;;;;;;6.17;1.53;;;;;;;;;;6170889;23;20446;-87
2023/11/20 09:14:19;;;;;;;3.13;1.20;;;;;;;;;;6178703;23;20504;-86
2023/11/20 09:16:49;;;;;;;7.27;1.70;;;;;;;;;;6177046;23;20456;-84
2023/11/20 09:19:24;;;;;;;5.90;1.40;;;;;;;;;;6177905;23;20416;-88
2023/11/20 09:25:30;;;;;;;;;;;;;;;;;;;;;
2023/11/20 09:31:28;;;;;;;4.20;1.37;;;;;;;;;;6162697;23;20446;-87
2023/11/20 09:33:58;;;;;;;3.70;1.30;;;;;;;;;;6177815;23;20413;-86
2023/11/20 09:36:48;;;;;;;2.60;0.90;;;;;;;;;;6176613;23;20418;-85
2023/11/20 09:39:35;;;;;;;4.50;1.53;;;;;;;;;;6172895;23;20430;-85
2023/11/20 09:42:06;;;;;;;5.43;1.33;;;;;;;;;;6179045;23;20414;-85
2023/11/20 09:44:38;;;;;;;9.27;1.60;;;;;;;;;;6182251;23;20539;-84
2023/11/20 09:47:12;;;;;;;4.43;1.37;;;;;;;;;;6179254;23;20433;-87
2023/11/20 09:50:02;;;;;;;2.75;1.30;;;;;;;;;;6177852;23;20461;-87
2023/11/20 09:52:35;;;;;;;2.43;1.00;;;;;;;;;;6179277;23;20432;-84
2023/11/20 09:55:14;;;;;;;1.63;0.80;;;;;;;;;;6178295;23;20409;-84
2023/11/20 09:57:45;;;;;;;2.53;1.00;;;;;;;;;;6179412;23;20430;-85
2023/11/20 10:00:35;;;;;;;5.37;1.30;;;;;;;;;;6182235;23;20490;-86
2023/11/20 10:03:22;;;;;;;5.27;1.20;;;;;;;;;;6181986;23;20402;-86
2023/11/20 10:06:01;;;;;;;3.00;1.00;;;;;;;;;;6185282;23;20394;-87
2023/11/20 10:08:40;;;;;;;6.40;1.33;;;;;;;;;;6194366;23;20433;-87
2023/11/20 10:11:17;;;;;;;5.03;1.20;;;;;;;;;;6194548;23;20442;-87
2023/11/20 10:14:00;;;;;;;1.67;1.47;;;;;;;;;;6191775;23;20738;-86
2023/11/20 10:16:35;;;;;;;5.30;1.40;;;;;;;;;;6180980;23;20521;-86
2023/11/20 10:19:14;;;;;;;4.53;1.90;;;;;;;;;;6187968;23;20409;-87
2023/11/20 10:21:58;;;;;;;1.53;0.87;;;;;;;;;;6185517;23;20410;-86
2023/11/20 10:24:28;;;;;;;7.57;1.23;;;;;;;;;;6189070;23;20424;-87
2023/11/20 10:27:01;;;;;;;7.70;2.50;;;;;;;;;;6189330;23;20430;-85
2023/11/20 10:29:40;;;;;;;5.40;1.40;;;;;;;;;;6192634;23;20413;-86
2023/11/20 10:32:20;;;;;;;2.30;1.30;;;;;;;;;;6200006;23;20529;-86
2023/11/20 10:35:00;;;;;;;4.23;1.50;;;;;;;;;;6200469;23;20405;-87
2023/11/20 10:40:20;;;;;;;4.00;1.20;;;;;;;;;;6233900;23;20496;-88
2023/11/20 10:46:20;;;;;;;1.60;0.90;;;;;;;;;;6234091;23;20398;-85
2023/11/20 10:48:55;;;;;;;5.70;1.27;;;;;;;;;;6253769;22;20479;-86
2023/11/20 10:51:40;;;;;;;1.97;1.17;;;;;;;;;;6224232;23;20511;-86
2023/11/20 10:54:33;;;;;;;3.70;1.17;;;;;;;;;;6216488;23;20419;-85
2023/11/20 10:57:16;;;;;;;1.77;0.97;;;;;;;;;;6213326;23;20508;-86
2023/11/20 11:00:09;;;;;;;2.07;0.80;;;;;;;;;;6214963;23;20411;-86
2023/11/20 11:02:45;;;;;;;4.17;0.97;;;;;;;;;;6210361;23;20417;-84
2023/11/20 11:05:22;;;;;;;1.90;1.00;;;;;;;;;;6211512;23;20405;-87
2023/11/20 11:08:00;;;;;;;3.50;1.10;;;;;;;;;;6209499;23;20433;-86
2023/11/20 11:10:36;;;;;;;1.80;0.80;;;;;;;;;;6209305;23;21431;-86
2023/11/20 11:13:13;;;;;;;3.70;0.93;;;;;;;;;;6209478;23;20985;-85
2023/11/20 11:15:53;;;;;;;2.00;1.10;;;;;;;;;;6210071;23;20406;-86
2023/11/20 11:18:29;;;;;;;2.00;0.90;;;;;;;;;;6204590;23;20443;-88
2023/11/20 11:21:29;;;;;;;2.03;1.00;;;;;;;;;;6204079;23;20527;-86
2023/11/20 11:24:09;;;;;;;2.00;1.37;;;;;;;;;;6208077;23;20451;-85
2023/11/20 11:26:56;;;;;;;2.03;1.13;;;;;;;;;;6208415;23;20605;-87
2023/11/20 11:30:07;;;;;;;3.13;1.20;;;;;;;;;;6211862;23;20465;-85
2023/11/20 11:32:43;;;;;;;1.20;0.87;;;;;;;;;;6070298;23;20520;-86
2023/11/20 11:35:31;;;;;;;1.73;0.97;;;;;;;;;;6080793;23;20700;-85
2023/11/20 11:38:37;;;;;;;1.50;1.00;;;;;;;;;;6193768;23;20433;-86
2023/11/20 11:41:33;;;;;;;5.10;1.50;;;;;;;;;;6214800;23;20444;-84
2023/11/20 11:44:34;;;;;;;2.50;0.90;;;;;;;;;;6228478;22;20424;-87
2023/11/20 11:47:22;;;;;;;2.53;1.30;;;;;;;;;;6233240;22;20494;-88
2023/11/20 11:50:01;;;;;;;2.50;1.17;;;;;;;;;;6233217;22;20413;-86
2023/11/20 11:52:33;;;;;;;1.30;1.00;;;;;;;;;;6229903;22;20467;-84
2023/11/20 11:55:19;;;;;;;1.10;0.90;;;;;;;;;;6227763;23;20415;-86
2023/11/20 11:58:16;;;;;;;1.83;0.87;;;;;;;;;;6220817;23;20452;-85
2023/11/20 12:01:17;;;;;;;1.47;0.97;;;;;;;;;;6215706;23;20397;-87
2023/11/20 12:03:53;;;;;;;1.10;0.80;;;;;;;;;;6211825;23;20420;-86
2023/11/20 12:06:29;;;;;;;1.13;1.00;;;;;;;;;;6210896;23;20411;-85
2023/11/20 12:09:02;;;;;;;2.20;0.97;;;;;;;;;;6227506;23;20472;-85
2023/11/20 12:11:56;;;;;;;3.27;0.90;;;;;;;;;;6226293;23;20445;-86
2023/11/20 12:14:38;;;;;;;2.67;1.37;;;;;;;;;;6209082;23;20480;-86
2023/11/20 12:17:32;;;;;;;1.70;0.67;;;;;;;;;;6206751;23;20440;-86
2023/11/20 12:20:08;;;;;;;1.80;1.10;;;;;;;;;;6208058;23;20415;-86
2023/11/20 12:23:06;;;;;;;3.43;1.33;;;;;;;;;;6205532;23;20405;-85
2023/11/20 12:25:58;;;;;;;1.40;0.80;;;;;;;;;;6192633;23;20395;-86
2023/11/20 12:28:36;;;;;;;2.50;1.13;;;;;;;;;;6208763;23;20440;-86
2023/11/20 12:31:12;;;;;;;2.80;0.97;;;;;;;;;;6206537;23;20451;-86
2023/11/20 12:34:03;;;;;;;2.93;0.77;;;;;;;;;;6207312;23;20436;-85
2023/11/20 12:36:34;;;;;;;2.07;0.93;;;;;;;;;;6206017;23;20988;-84
2023/11/20 12:39:13;;;;;;;1.50;1.40;;;;;;;;;;6208823;23;20417;-84
2023/11/20 12:41:52;;;;;;;1.63;0.90;;;;;;;;;;6207195;23;20728;-86
2023/11/20 12:44:29;;;;;;;2.40;1.00;;;;;;;;;;6206102;23;20878;-85
2023/11/20 12:47:04;;;;;;;4.40;0.97;;;;;;;;;;6206973;23;20440;-86
2023/11/20 12:49:59;;;;;;;1.93;1.03;;;;;;;;;;6198808;23;20515;-83
2023/11/20 12:52:30;;;;;;;2.77;1.10;;;;;;;;;;6210749;23;20417;-84
2023/11/20 12:55:24;;;;;;;1.60;1.10;;;;;;;;;;6205696;23;20466;-84
2023/11/20 12:58:30;;;;;;;2.70;1.00;;;;;;;;;;6202416;23;20433;-83
2023/11/20 13:01:06;;;;;;;2.27;1.10;;;;;;;;;;6226772;22;20448;-88
2023/11/20 13:03:51;;;;;;;3.43;1.10;;;;;;;;;;6210395;23;20444;-87
2023/11/20 13:06:22;;;;;;;4.07;1.40;;;;;;;;;;6233368;23;20545;-87
2023/11/20 13:08:54;;;;;;;3.90;1.50;;;;;;;;;;6234837;22;20417;-87
2023/11/20 13:11:27;;;;;;;2.43;0.97;;;;;;;;;;6234633;22;20443;-86
2023/11/20 13:14:05;;;;;;;6.20;1.23;;;;;;;;;;6218307;23;21000;-85
2023/11/20 13:16:46;;;;;;;3.70;1.20;;;;;;;;;;6218604;23;20441;-88
2023/11/20 13:19:34;;;;;;;2.20;1.03;;;;;;;;;;6217855;23;20468;-85
2023/11/20 13:22:26;;;;;;;;;;;;;;;;;;;;;
2023/11/20 13:25:09;;;;;;;3.50;1.57;;;;;;;;;;6219855;23;20423;-88
2023/11/20 13:28:02;;;;;;;3.47;1.43;;;;;;;;;;6215898;23;20504;-85
2023/11/20 13:31:08;;;;;;;2.50;1.27;;;;;;;;;;6212986;23;20925;-86
2023/11/20 13:33:45;;;;;;;5.23;1.37;;;;;;;;;;6220772;23;20478;-86
2023/11/20 13:36:27;;;;;;;1.60;1.07;;;;;;;;;;6213856;23;20447;-86
2023/11/20 13:38:58;;;;;;;2.93;1.33;;;;;;;;;;6212660;23;20475;-85
2023/11/20 13:41:30;;;;;;;2.27;1.10;;;;;;;;;;6221424;22;20417;-85
2023/11/20 13:44:04;;;;;;;5.40;1.73;;;;;;;;;;6217596;23;20456;-84
2023/11/20 13:46:41;;;;;;;2.60;1.07;;;;;;;;;;6217579;23;20458;-85
2023/11/20 13:49:23;;;;;;;2.60;1.10;;;;;;;;;;6215766;23;20409;-86
2023/11/20 13:51:59;;;;;;;3.60;0.93;;;;;;;;;;6214848;23;20498;-86
2023/11/20 13:54:36;;;;;;;2.30;1.23;;;;;;;;;;6216497;23;20759;-84
2023/11/20 13:57:24;;;;;;;1.50;0.93;;;;;;;;;;6220625;23;20449;-88
2023/11/20 14:00:03;;;;;;;1.70;0.80;;;;;;;;;;6219844;23;20409;-86
2023/11/20 14:02:33;;;;;;;5.30;1.30;;;;;;;;;;6215548;23;20417;-87
2023/11/20 14:05:15;;;;;;;;;;;;;;;;;;;;;
2023/11/20 14:08:15;;;;;;;4.33;1.20;;;;;;;;;;6225723;23;20455;-86
2023/11/20 14:11:00;;;;;;;5.70;2.10;;;;;;;;;;6223161;23;20403;-87
2023/11/20 14:13:44;;;;;;;5.97;1.40;;;;;;;;;;6216557;23;20969;-87
2023/11/20 14:16:29;;;;;;;3.20;1.40;;;;;;;;;;6217480;23;20409;-89
2023/11/20 14:19:04;;;;;;;4.73;1.70;;;;;;;;;;6219991;23;20785;-88
2023/11/20 14:21:44;;;;;;;5.97;2.50;;;;;;;;;;6220173;23;20444;-88
2023/11/20 14:24:29;;;;;;;3.90;1.60;;;;;;;;;;6223036;23;20725;-87
2023/11/20 14:27:19;;;;;;;4.63;1.77;;;;;;;;;;6226465;23;20513;-87
2023/11/20 14:30:11;;;;;;;3.30;1.80;;;;;;;;;;6227619;23;20901;-86
2023/11/20 14:33:04;;;;;;;3.47;1.40;;;;;;;;;;6219223;23;20871;-87
2023/11/20 14:35:47;;;;;;;2.70;1.30;;;;;;;;;;6171366;23;20723;-88
2023/11/20 14:38:26;;;;;;;2.43;1.50;;;;;;;;;;6211898;23;21055;-89
2023/11/20 14:41:07;;;;;;;5.90;3.83;;;;;;;;;;6210933;23;20421;-87
2023/11/20 14:43:50;;;;;;;1.50;1.40;;;;;;;;;;6212581;23;20405;-86
2023/11/20 14:46:20;;;;;;;4.83;1.87;;;;;;;;;;6227226;22;20425;-87
2023/11/20 14:49:06;;;;;;;2.87;1.47;;;;;;;;;;6229869;22;20417;-90
2023/11/20 14:51:48;;;;;;;4.20;1.83;;;;;;;;;;6214466;22;20452;-86
2023/11/20 14:54:18;;;;;;;3.27;1.67;;;;;;;;;;6212417;23;20413;-89
2023/11/20 15:00:10;;;;;;;6.20;1.83;;;;;;;;;;6201034;23;20408;-89
2023/11/20 15:02:57;;;;;;;2.90;2.00;;;;;;;;;;6210753;23;21323;-86
2023/11/20 15:05:25;;;;;;;4.20;1.50;;;;;;;;;;6207657;23;20419;-88
2023/11/20 15:08:00;;;;;;;4.00;1.90;;;;;;;;;;6209633;23;20580;-86
2023/11/20 15:11:09;;;;;;;4.50;2.03;;;;;;;;;;6187441;23;20401;-85
2023/11/20 15:14:05;;;;;;;5.20;2.47;;;;;;;;;;6097345;23;20542;-85
2023/11/20 15:16:47;;;;;;;2.83;1.57;;;;;;;;;;6093034;23;20462;-88
2023/11/20 15:19:33;;;;;;;6.90;2.47;;;;;;;;;;6094570;23;20450;-88
2023/11/20 15:22:13;;;;;;;4.20;1.90;;;;;;;;;;6092315;23;20519;-85
2023/11/20 15:25:03;;;;;;;5.87;2.30;;;;;;;;;;6093510;23;20420;-87
2023/11/20 15:27:46;;;;;;;3.83;2.53;;;;;;;;;;6091597;23;20470;-84
2023/11/20 15:30:46;;;;;;;5.13;1.90;;;;;;;;;;6097450;23;20523;-86
2023/11/20 15:36:57;;;;;;;4.40;1.83;;;;;;;;;;6114240;23;20527;-85
2023/11/20 15:39:58;;;;;;;5.00;2.30;;;;;;;;;;6107555;23;20443;-84
2023/11/20 15:42:51;;;;;;;3.00;1.80;;;;;;;;;;6111801;23;20632;-86
2023/11/20 15:45:50;;;;;;;;;;;;;;;;;;;;;
2023/11/20 15:48:37;;;;;;;3.60;2.40;;;;;;;;;;6102899;23;21131;-85
2023/11/20 15:51:20;;;;;;;7.30;2.03;;;;;;;;;;6208741;23;20416;-86
2023/11/20 15:53:54;;;;;;;7.10;2.60;;;;;;;;;;6211115;23;20401;-87
2023/11/20 15:56:53;;;;;;;3.60;2.10;;;;;;;;;;6181337;23;20419;-87
2023/11/20 15:59:37;;;;;;;4.87;2.40;;;;;;;;;;6205064;23;20389;-87
2023/11/20 16:02:13;;;;;;;5.70;2.97;;;;;;;;;;6204802;23;20500;-85
2023/11/20 16:08:46;;;;;;;4.23;2.57;;;;;;;;;;6198466;23;20452;-86
2023/11/20 16:11:35;;;;;;;4.77;2.70;;;;;;;;;;6228468;23;20399;-86
2023/11/20 16:14:11;;;;;;;5.67;2.43;;;;;;;;;;6219491;23;20456;-85
2023/11/20 16:16:52;;;;;;;5.87;2.30;;;;;;;;;;6211117;23;20406;-84
2023/11/20 16:19:52;;;;;;;7.03;2.60;;;;;;;;;;6211339;23;20961;-85
2023/11/20 16:22:36;;;;;;;4.87;2.37;;;;;;;;;;6080921;23;20890;-87
2023/11/20 16:25:30;;;;;;;5.00;2.63;;;;;;;;;;6211885;23;20539;-84
2023/11/20 16:28:11;;;;;;;6.10;4.53;;;;;;;;;;6211371;23;20491;-85
2023/11/20 16:31:06;;;;;;;5.00;2.37;;;;;;;;;;6209294;23;20887;-87
2023/11/20 16:33:43;;;;;;;5.10;2.33;;;;;;;;;;6213031;23;20465;-86
2023/11/20 16:36:31;;;;;;;;;;;;;;;;;;;;;
2023/11/20 16:39:14;;;;;;;6.73;2.77;;;;;;;;;;6213760;23;20813;-84
2023/11/20 16:42:11;;;;;;;4.87;2.10;;;;;;;;;;6211042;23;20409;-87
2023/11/20 16:45:05;;;;;;;5.87;3.23;;;;;;;;;;6209418;23;20449;-84
2023/11/20 16:47:55;;;;;;;;;;;;;;;;;;;;;
2023/11/20 16:50:41;;;;;;;7.03;2.97;;;;;;;;;;6210901;23;20397;-86
2023/11/20 16:53:43;;;;;;;8.17;2.03;;;;;;;;;;6208936;23;20498;-86
2023/11/20 16:56:32;;;;;;;5.23;2.60;;;;;;;;;;6211095;23;20428;-86
2023/11/20 16:59:38;;;;;;;3.57;2.53;;;;;;;;;;6211593;23;20428;-85
2023/11/20 17:02:29;;;;;;;7.00;2.73;;;;;;;;;;6206709;23;20933;-83
2023/11/20 17:05:25;;;;;;;5.10;2.47;;;;;;;;;;6095932;23;20412;-89
2023/11/20 17:08:01;;;;;;;6.83;2.63;;;;;;;;;;6116389;23;20620;-84
2023/11/20 17:10:47;;;;;;;5.70;2.90;;;;;;;;;;6117392;23;20420;-84
2023/11/20 17:13:29;;;;;;;2.60;1.97;;;;;;;;;;6124767;23;20502;-86
2023/11/20 17:16:34;;;;;;;6.40;1.80;;;;;;;;;;6120400;23;20419;-85
2023/11/20 17:19:25;;;;;;;4.80;1.70;;;;;;;;;;6118133;23;20492;-87
2023/11/20 17:25:53;;;;;;;7.27;1.77;;;;;;;;;;6208452;23;20405;-85
2023/11/20 17:32:14;;;;;;;4.57;2.00;;;;;;;;;;6182053;23;20409;-85
2023/11/20 17:35:20;;;;;;;4.33;1.93;;;;;;;;;;6202880;23;20424;-86
2023/11/20 17:38:09;;;;;;;4.03;2.73;;;;;;;;;;6201357;23;20950;-85
2023/11/20 17:40:59;;;;;;;6.67;2.80;;;;;;;;;;6212301;23;20918;-86